Boone County Airport
KHRO : now visible

Airfield :











YOU CAN JOIN US ON...

 
LOGIN :

Register | Disclaimer

   EN    FR    IT 

 









Legend :    VFR   Marginal VFR   IFR   Intensive IFR   Very Intensive IFR
Visi :
Ceiling :
>= 8 km
>= 3000ft
5 to 8 km
1000 to 3000 ft
1500m to 5 km
500 to 1000 ft
800 to 1500m
200 to 500 ft
< 800m
< 200 ft
Symbols :   Thunderstorms  Fog  Heavy snow  Heavy precipitations  Wind > 20 kt






- Airport Elevation : 1365 ft
- IATA code : HRO


KHRO - Boone County

CURRENT METAR :
  • 170653Z AUTO 00000KT 10SM CLR 19/17 A3000 RMK AO2 SLP145 T01940167

EXPIRED METARs :
  • 170553Z AUTO 00000KT 10SM CLR 20/17 A3001 RMK AO2 SLP148 T02000172 10267 20200 403000183 58003
  • 170453Z AUTO 12004KT 10SM CLR 20/17 A3002 RMK AO2 SLP152 T02000172

TAF KHRO
Valid from the 17 at 06:00 until the 18 at 06:00 UTC


170535Z 1706/1806 12007KT P6SM SCT050
FM170800 VRB02KT 4SM BR SCT100
FM171500 09007KT P6SM BKN060
KZME FIR / North America



MET'MAP, your aeronautical weather chart ! - Copyright ORBIFLY December 2007 - Disclaimer

ORBIFLY MET'MAP TEAM :

Programming & Development : Alexandra Zaïnal
Concept & original design : Baudouin d'Aumeries
Assistance for programming : Marc-Olivier Méhu
Technical & hardware support : Manuel Goepfert

Contact : metmap@orbifly.com




SOURCES & CREDITS :

   NOAA       Earth
Advisory